Time;durP1;ratioP1;P1;durP2;ratioP2;P2;SDS_P1;SDS_P2;PMS_P1;PMS_P2;Temp;Humidity;BMP_temperature;BMP_pressure;BME280_temperature;BME280_humidity;BME280_pressure;Samples;Min_cycle;Max_cycle;Signal;HPM_P1;HPM_P2
2023/05/18 00:02:20;;;;;;;5.63;2.65;;;12.70;84.10;;;;;;10196756;28;20047;-66
2023/05/18 00:07:11;;;;;;;5.60;2.55;;;12.60;84.60;;;;;;10221634;28;20609;-67
2023/05/18 00:12:04;;;;;;;6.20;3.10;;;12.60;84.60;;;;;;10210626;28;20099;-71
2023/05/18 00:16:55;;;;;;;4.30;3.00;;;12.60;84.70;;;;;;10212696;28;20036;-62
2023/05/18 00:21:46;;;;;;;4.03;2.47;;;12.40;85.20;;;;;;10224750;27;20047;-65
2023/05/18 00:26:43;;;;;;;4.55;2.05;;;12.30;85.60;;;;;;10205437;28;20052;-62
2023/05/18 00:31:37;;;;;;;6.72;2.42;;;12.00;86.10;;;;;;10202327;28;20024;-62
2023/05/18 00:36:28;;;;;;;3.30;2.13;;;12.20;86.00;;;;;;10222933;28;20236;-61
2023/05/18 00:41:20;;;;;;;5.63;3.00;;;12.10;86.00;;;;;;10213409;28;20218;-61
2023/05/18 00:46:11;;;;;;;5.03;2.33;;;12.10;85.80;;;;;;10201553;28;20334;-61
2023/05/18 00:51:02;;;;;;;4.10;2.45;;;12.00;86.30;;;;;;10219599;28;20034;-61
2023/05/18 00:55:52;;;;;;;4.10;1.95;;;11.90;86.40;;;;;;10220091;28;20476;-62
2023/05/18 01:00:43;;;;;;;5.00;2.13;;;11.80;87.10;;;;;;10214760;28;20044;-64
2023/05/18 01:05:34;;;;;;;7.28;2.72;;;11.60;87.60;;;;;;10232289;28;20042;-64
2023/05/18 01:10:24;;;;;;;3.90;2.15;;;11.60;87.70;;;;;;10219269;28;20051;-60
2023/05/18 01:15:18;;;;;;;3.92;2.05;;;11.50;87.80;;;;;;10187806;28;20036;-66
2023/05/18 01:20:28;;;;;;;4.93;1.70;;;11.50;88.00;;;;;;10204928;28;20110;-63
2023/05/18 01:25:18;;;;;;;4.30;2.28;;;11.50;88.00;;;;;;10219430;28;20393;-67
2023/05/18 01:30:10;;;;;;;2.45;2.03;;;11.40;88.20;;;;;;10220617;28;20027;-63
2023/05/18 01:35:00;;;;;;;4.82;2.33;;;11.30;88.90;;;;;;10223342;28;20628;-62
2023/05/18 01:39:51;;;;;;;3.30;1.98;;;11.10;89.30;;;;;;10216458;28;20286;-62
2023/05/18 01:44:52;;;;;;;4.00;2.00;;;11.20;89.20;;;;;;10200646;28;20031;-60
2023/05/18 01:50:15;;;;;;;3.40;2.20;;;11.10;89.60;;;;;;10218981;28;20094;-66
2023/05/18 01:55:07;;;;;;;3.92;1.73;;;11.00;89.80;;;;;;10226734;28;20085;-61
2023/05/18 01:59:59;;;;;;;4.18;1.92;;;10.90;90.00;;;;;;10229148;27;20066;-61
2023/05/18 02:04:50;;;;;;;2.83;2.33;;;11.00;90.10;;;;;;10226333;28;20060;-64
2023/05/18 02:09:40;;;;;;;4.28;2.17;;;10.80;90.30;;;;;;10207318;28;20018;-75
2023/05/18 02:14:32;;;;;;;4.28;2.72;;;10.70;90.40;;;;;;10182331;28;20509;-69
2023/05/18 02:19:24;;;;;;;3.72;1.60;;;10.70;90.40;;;;;;10220932;28;20066;-61
2023/05/18 02:24:14;;;;;;;3.15;1.55;;;10.70;90.40;;;;;;10201897;28;20679;-62
2023/05/18 02:29:05;;;;;;;4.80;2.28;;;10.70;90.60;;;;;;10218743;27;20280;-63
2023/05/18 02:33:56;;;;;;;4.82;2.83;;;10.70;90.60;;;;;;10224911;28;20116;-68
2023/05/18 02:38:47;;;;;;;2.85;1.48;;;10.60;90.90;;;;;;10225260;28;20034;-61
2023/05/18 02:43:38;;;;;;;2.67;1.50;;;10.50;91.30;;;;;;10224916;28;20101;-69
2023/05/18 02:48:29;;;;;;;4.95;2.03;;;10.50;91.00;;;;;;10216035;28;20114;-62
2023/05/18 02:53:20;;;;;;;2.83;1.10;;;10.50;90.90;;;;;;10224453;28;20488;-61
2023/05/18 02:58:14;;;;;;;4.05;1.95;;;10.40;91.10;;;;;;10223887;28;20042;-70
2023/05/18 03:03:05;;;;;;;4.38;1.75;;;10.50;91.10;;;;;;10218194;28;20051;-62
2023/05/18 03:07:56;;;;;;;4.43;2.10;;;10.50;91.10;;;;;;10199537;28;20114;-72
2023/05/18 03:12:47;;;;;;;4.20;2.08;;;10.60;91.00;;;;;;10215325;27;20031;-61
2023/05/18 03:17:39;;;;;;;4.13;1.77;;;10.30;91.30;;;;;;10209394;28;20027;-61
2023/05/18 03:22:30;;;;;;;5.32;1.58;;;10.30;91.40;;;;;;10204636;28;20032;-66
2023/05/18 03:27:24;;;;;;;2.63;1.52;;;10.20;91.60;;;;;;10204153;28;20030;-63
2023/05/18 03:32:14;;;;;;;3.67;1.45;;;10.10;91.80;;;;;;10222844;28;20092;-61
2023/05/18 03:37:05;;;;;;;4.13;1.88;;;10.00;91.90;;;;;;10204029;28;20042;-61
2023/05/18 03:41:56;;;;;;;3.00;1.85;;;9.90;92.00;;;;;;10222213;28;20020;-62
2023/05/18 03:46:47;;;;;;;3.40;2.20;;;9.90;92.10;;;;;;10222267;28;20054;-61
2023/05/18 03:51:38;;;;;;;2.30;1.30;;;9.90;92.60;;;;;;10222431;28;20389;-61
2023/05/18 03:56:30;;;;;;;1.92;1.60;;;9.80;92.60;;;;;;10186920;28;20036;-66
2023/05/18 04:01:22;;;;;;;2.90;1.73;;;9.70;92.70;;;;;;10186281;28;20104;-63
2023/05/18 04:06:13;;;;;;;2.67;1.70;;;9.80;92.60;;;;;;10225088;27;20024;-61
2023/05/18 04:11:03;;;;;;;2.47;1.42;;;9.80;92.80;;;;;;10221654;28;20024;-61
2023/05/18 04:15:57;;;;;;;3.65;1.50;;;9.80;92.70;;;;;;10206821;28;20027;-64
2023/05/18 04:20:48;;;;;;;5.72;2.15;;;9.90;92.50;;;;;;10227377;27;20416;-60
2023/05/18 04:25:40;;;;;;;2.10;1.50;;;9.80;92.80;;;;;;10220867;28;20031;-64
2023/05/18 04:30:31;;;;;;;3.97;1.63;;;9.60;93.20;;;;;;10220225;28;20075;-64
2023/05/18 04:35:23;;;;;;;5.43;2.03;;;9.70;93.00;;;;;;10219960;28;20031;-63
2023/05/18 04:40:15;;;;;;;9.05;2.30;;;9.70;93.20;;;;;;10220318;28;20111;-69
2023/05/18 04:45:06;;;;;;;4.13;1.63;;;9.70;93.40;;;;;;10214907;28;20483;-65
2023/05/18 04:49:57;;;;;;;4.50;1.45;;;9.70;93.30;;;;;;10201053;28;20124;-61
2023/05/18 04:54:48;;;;;;;3.85;1.85;;;9.70;93.40;;;;;;10219720;28;20115;-65
2023/05/18 04:59:41;;;;;;;4.28;1.80;;;9.70;93.70;;;;;;10215799;28;20024;-62
2023/05/18 05:04:31;;;;;;;4.43;1.77;;;9.80;93.60;;;;;;10201803;28;20071;-69
2023/05/18 05:09:22;;;;;;;2.90;2.03;;;9.70;93.80;;;;;;10192263;28;20023;-61
2023/05/18 05:14:13;;;;;;;3.42;2.35;;;9.80;93.80;;;;;;10206802;28;20383;-68
2023/05/18 05:19:03;;;;;;;5.50;1.85;;;9.70;94.10;;;;;;10218190;28;20028;-64
2023/05/18 05:23:54;;;;;;;10.43;2.25;;;9.80;94.10;;;;;;10208565;28;20032;-62
2023/05/18 05:28:45;;;;;;;2.22;1.38;;;9.80;94.30;;;;;;10226603;28;20438;-64
2023/05/18 05:33:35;;;;;;;4.03;1.90;;;9.90;94.20;;;;;;10229900;27;20080;-65
2023/05/18 05:38:26;;;;;;;4.97;1.65;;;9.90;94.30;;;;;;10227415;28;20027;-62
2023/05/18 05:43:17;;;;;;;7.22;2.00;;;10.00;94.40;;;;;;10228990;28;20389;-63
2023/05/18 05:48:08;;;;;;;8.45;2.70;;;10.10;94.50;;;;;;10225105;28;20522;-62
2023/05/18 05:52:58;;;;;;;2.88;1.75;;;10.10;94.50;;;;;;10234023;28;20027;-65
2023/05/18 05:57:49;;;;;;;4.05;1.83;;;10.20;94.70;;;;;;10207801;28;20053;-65
2023/05/18 06:02:40;;;;;;;5.75;1.92;;;10.10;94.90;;;;;;10226334;28;20046;-68
2023/05/18 06:07:30;;;;;;;2.67;1.58;;;10.20;94.90;;;;;;10223322;28;20095;-62
2023/05/18 06:12:21;;;;;;;5.30;2.22;;;10.30;94.90;;;;;;10213844;27;20024;-63
2023/05/18 06:17:12;;;;;;;5.03;2.20;;;10.50;94.80;;;;;;10219790;28;20043;-65
2023/05/18 06:22:02;;;;;;;8.07;2.78;;;10.70;94.90;;;;;;10199635;28;20064;-65
2023/05/18 06:26:53;;;;;;;6.93;2.28;;;10.70;94.80;;;;;;10223687;28;20040;-68
2023/05/18 06:31:44;;;;;;;3.35;2.22;;;10.80;94.80;;;;;;10224716;28;20020;-64
2023/05/18 06:36:35;;;;;;;2.63;1.88;;;10.90;94.80;;;;;;10224526;28;20535;-72
2023/05/18 06:41:26;;;;;;;2.95;1.77;;;11.00;94.80;;;;;;10223726;28;20019;-62
2023/05/18 06:46:23;;;;;;;4.20;2.05;;;11.10;94.70;;;;;;10216653;28;20739;-61
2023/05/18 06:51:15;;;;;;;5.80;2.85;;;11.20;94.80;;;;;;10224063;28;20020;-60
2023/05/18 06:56:06;;;;;;;3.92;2.38;;;11.40;94.60;;;;;;10226283;27;20499;-70
2023/05/18 07:00:56;;;;;;;6.90;2.35;;;11.50;94.60;;;;;;10219036;28;20047;-63
2023/05/18 07:05:47;;;;;;;4.13;2.50;;;11.50;94.60;;;;;;10225884;28;20496;-60
2023/05/18 07:10:38;;;;;;;6.70;1.80;;;11.70;94.50;;;;;;10233833;27;20019;-66
2023/05/18 07:15:28;;;;;;;4.40;1.85;;;11.90;94.40;;;;;;10209939;28;20073;-62
2023/05/18 07:20:19;;;;;;;3.67;2.15;;;12.00;94.30;;;;;;10223758;28;20360;-64
2023/05/18 07:25:10;;;;;;;3.97;1.95;;;12.10;94.30;;;;;;10233251;27;20027;-66
2023/05/18 07:30:01;;;;;;;8.00;2.53;;;12.30;94.10;;;;;;10223111;28;20031;-60
2023/05/18 07:34:52;;;;;;;5.32;1.70;;;12.50;94.00;;;;;;10222474;28;20036;-62
2023/05/18 07:39:42;;;;;;;3.92;1.75;;;12.50;93.90;;;;;;10223082;27;20014;-62
2023/05/18 07:44:33;;;;;;;3.35;1.88;;;12.60;93.80;;;;;;10222078;28;20031;-61
2023/05/18 07:49:24;;;;;;;6.07;1.90;;;12.80;93.80;;;;;;10214690;28;20389;-63
2023/05/18 07:54:14;;;;;;;6.38;2.08;;;12.90;93.60;;;;;;10222567;28;20040;-70
2023/05/18 07:59:06;;;;;;;2.88;1.73;;;13.00;93.20;;;;;;10218713;28;20023;-65
2023/05/18 08:03:57;;;;;;;3.85;1.60;;;13.10;93.20;;;;;;10223181;27;20112;-61
2023/05/18 08:08:48;;;;;;;5.65;1.58;;;13.30;93.10;;;;;;10229477;27;20092;-62
2023/05/18 08:13:38;;;;;;;3.20;1.60;;;13.40;93.00;;;;;;10207116;28;20020;-61
2023/05/18 08:18:29;;;;;;;3.72;2.00;;;13.40;92.60;;;;;;10205811;28;20035;-70
2023/05/18 08:23:20;;;;;;;5.72;1.90;;;13.40;92.60;;;;;;10223410;28;20088;-61
2023/05/18 08:28:11;;;;;;;4.88;2.20;;;13.50;92.60;;;;;;10222211;28;20024;-62
2023/05/18 08:33:01;;;;;;;3.38;2.25;;;13.70;92.50;;;;;;10220724;28;20035;-62
2023/05/18 08:37:53;;;;;;;5.60;1.88;;;13.80;92.30;;;;;;10220945;28;20104;-60
2023/05/18 08:43:01;;;;;;;9.60;2.80;;;13.90;92.20;;;;;;10220645;28;20027;-73
2023/05/18 08:47:56;;;;;;;3.42;1.80;;;14.00;92.10;;;;;;10203149;27;20027;-61
2023/05/18 08:52:50;;;;;;;7.37;2.30;;;14.00;91.80;;;;;;10219669;28;20073;-60
2023/05/18 08:57:43;;;;;;;3.97;1.95;;;14.00;91.80;;;;;;10220034;28;20027;-70
2023/05/18 09:02:35;;;;;;;3.28;1.42;;;14.10;91.70;;;;;;10216122;27;20050;-73
2023/05/18 09:07:27;;;;;;;6.07;2.10;;;14.40;91.60;;;;;;10219371;28;20020;-78
2023/05/18 09:12:21;;;;;;;3.20;2.13;;;14.40;91.50;;;;;;10211396;28;20024;-61
2023/05/18 09:17:12;;;;;;;2.15;1.95;;;14.40;91.50;;;;;;10199689;28;20479;-68
2023/05/18 09:22:03;;;;;;;7.43;2.25;;;14.50;91.40;;;;;;10219226;28;20023;-63
2023/05/18 09:26:54;;;;;;;3.75;2.22;;;14.70;91.40;;;;;;10218954;28;20024;-62
2023/05/18 09:31:46;;;;;;;5.22;2.38;;;14.90;91.30;;;;;;10229175;28;20102;-76
2023/05/18 09:36:37;;;;;;;4.40;2.38;;;15.00;91.30;;;;;;10218830;28;20473;-67
2023/05/18 09:41:29;;;;;;;6.53;2.50;;;15.00;91.10;;;;;;10219038;28;20028;-64
2023/05/18 09:46:20;;;;;;;3.30;2.65;;;15.20;91.10;;;;;;10219019;28;20016;-67
2023/05/18 09:51:15;;;;;;;5.05;1.95;;;15.20;91.00;;;;;;10219074;28;20020;-61
2023/05/18 09:56:10;;;;;;;3.65;1.73;;;15.20;90.90;;;;;;10218949;28;20031;-71
2023/05/18 10:01:01;;;;;;;;;;;15.30;90.90;;;;;;10221231;28;20093;-64
2023/05/18 10:05:52;;;;;;;5.97;1.92;;;15.40;90.70;;;;;;10218158;28;19911;-67
2023/05/18 10:10:48;;;;;;;6.35;2.80;;;15.60;90.70;;;;;;10219200;28;20020;-64
2023/05/18 10:15:46;;;;;;;6.20;2.65;;;15.70;90.60;;;;;;10211801;28;20069;-61
2023/05/18 10:20:37;;;;;;;7.05;2.30;;;15.70;90.60;;;;;;10225545;28;20024;-68
2023/05/18 10:25:28;;;;;;;3.22;2.05;;;15.80;90.30;;;;;;10227097;27;20058;-65
2023/05/18 10:30:21;;;;;;;3.40;2.13;;;15.90;90.30;;;;;;10226300;28;20032;-70
2023/05/18 10:35:12;;;;;;;4.70;2.70;;;16.00;90.20;;;;;;10226519;28;20028;-63
2023/05/18 10:40:05;;;;;;;5.22;2.70;;;15.90;90.10;;;;;;10230398;27;20091;-67
2023/05/18 10:44:56;;;;;;;11.35;2.67;;;16.10;90.10;;;;;;10202686;28;20028;-65
2023/05/18 10:49:48;;;;;;;4.53;2.70;;;16.30;89.70;;;;;;10184445;28;20500;-61
2023/05/18 10:54:40;;;;;;;7.07;2.83;;;16.40;89.60;;;;;;10215542;27;20516;-62
2023/05/18 10:59:32;;;;;;;5.20;2.50;;;16.40;89.40;;;;;;10199819;28;20122;-62
2023/05/18 11:04:26;;;;;;;7.20;2.70;;;16.50;89.20;;;;;;10223628;28;20098;-65
2023/05/18 11:09:23;;;;;;;5.95;3.03;;;16.70;89.20;;;;;;10221615;28;20019;-61
2023/05/18 11:14:14;;;;;;;4.82;2.38;;;16.80;88.60;;;;;;10208550;28;20115;-61
2023/05/18 11:19:06;;;;;;;5.60;2.53;;;17.10;88.80;;;;;;10223722;28;20456;-62
2023/05/18 11:24:31;;;;;;;4.90;2.58;;;17.00;88.40;;;;;;10226381;27;20028;-64
2023/05/18 11:29:29;;;;;;;6.32;2.63;;;16.90;88.20;;;;;;10210381;28;20016;-63
2023/05/18 11:34:48;;;;;;;5.65;2.90;;;17.30;88.30;;;;;;10223025;28;20114;-64
2023/05/18 11:39:39;;;;;;;6.40;2.47;;;17.50;87.70;;;;;;10219003;28;20473;-61
2023/05/18 11:44:32;;;;;;;7.50;2.65;;;17.30;87.40;;;;;;10204186;28;20026;-62
2023/05/18 11:49:24;;;;;;;3.85;2.65;;;17.40;87.10;;;;;;10214158;27;20443;-62
2023/05/18 11:54:16;;;;;;;4.35;2.35;;;17.50;86.70;;;;;;10201883;28;20077;-61
2023/05/18 11:59:11;;;;;;;3.85;2.55;;;17.50;86.40;;;;;;10216949;28;20020;-63
2023/05/18 12:04:02;;;;;;;;;;;17.60;86.40;;;;;;10212801;27;20056;-62
2023/05/18 12:08:54;;;;;;;5.20;2.28;;;18.00;85.10;;;;;;10212485;28;19908;-63
2023/05/18 12:13:45;;;;;;;6.15;2.70;;;18.10;85.40;;;;;;10200359;28;20058;-61
2023/05/18 12:18:38;;;;;;;4.82;2.33;;;18.40;85.40;;;;;;10222053;27;20039;-69
2023/05/18 12:23:36;;;;;;;6.10;2.20;;;18.60;85.40;;;;;;10220431;28;20039;-63
2023/05/18 12:28:27;;;;;;;5.38;2.22;;;18.80;85.10;;;;;;10220795;28;20139;-62
2023/05/18 12:33:20;;;;;;;3.75;2.45;;;19.10;85.00;;;;;;10221874;28;20076;-62
2023/05/18 12:38:10;;;;;;;6.88;2.30;;;19.30;84.60;;;;;;10220726;28;20043;-63
2023/05/18 12:43:04;;;;;;;5.22;3.05;;;19.70;84.60;;;;;;10219872;28;20371;-62
2023/05/18 12:47:54;;;;;;;4.53;1.80;;;20.10;83.70;;;;;;10215322;28;20047;-64
2023/05/18 12:52:50;;;;;;;3.67;2.47;;;19.90;83.40;;;;;;10201707;28;20016;-63
2023/05/18 12:57:42;;;;;;;3.70;1.98;;;20.70;83.10;;;;;;10219776;28;20031;-62
2023/05/18 13:02:37;;;;;;;5.40;1.88;;;21.50;81.40;;;;;;10222807;28;20290;-69
2023/05/18 13:07:28;;;;;;;5.50;2.63;;;22.70;80.10;;;;;;10219084;28;20027;-63
2023/05/18 13:12:41;;;;;;;7.18;2.42;;;23.60;78.50;;;;;;10205054;28;20024;-63
2023/05/18 13:17:32;;;;;;;4.40;2.33;;;24.30;75.20;;;;;;10229300;28;20024;-62
2023/05/18 13:22:23;;;;;;;5.72;3.30;;;24.40;74.60;;;;;;10219929;28;20027;-71
2023/05/18 13:27:13;;;;;;;6.22;2.60;;;24.90;73.90;;;;;;10219287;28;20366;-62
2023/05/18 13:32:04;;;;;;;3.50;1.92;;;25.00;72.90;;;;;;10222709;28;20151;-64
2023/05/18 13:36:55;;;;;;;4.97;2.55;;;25.60;71.70;;;;;;10218511;28;20047;-66
2023/05/18 13:41:46;;;;;;;5.07;1.80;;;24.80;70.50;;;;;;10222688;28;20049;-62
2023/05/18 13:46:37;;;;;;;5.68;1.92;;;24.60;70.20;;;;;;10224780;28;20034;-63
2023/05/18 13:51:27;;;;;;;4.03;2.03;;;23.90;70.00;;;;;;10226627;28;20024;-64
2023/05/18 13:56:18;;;;;;;6.38;2.00;;;24.50;68.50;;;;;;10234256;27;20047;-63
2023/05/18 14:01:09;;;;;;;5.55;1.85;;;23.00;68.70;;;;;;10230038;27;20039;-63
2023/05/18 14:06:00;;;;;;;7.47;2.00;;;23.30;68.20;;;;;;10207759;28;20495;-69
2023/05/18 14:10:50;;;;;;;6.38;1.90;;;24.20;66.40;;;;;;10219048;28;20503;-64
2023/05/18 14:15:41;;;;;;;6.72;2.22;;;24.90;65.70;;;;;;10193707;28;20053;-66
2023/05/18 14:20:32;;;;;;;3.65;1.67;;;25.40;65.00;;;;;;10226153;28;20022;-62
2023/05/18 14:25:23;;;;;;;5.22;1.60;;;25.80;64.60;;;;;;10233597;27;20042;-64
2023/05/18 14:30:13;;;;;;;7.57;2.40;;;25.10;64.80;;;;;;10225676;28;20506;-62
2023/05/18 14:35:04;;;;;;;4.30;1.92;;;25.00;64.40;;;;;;10225274;28;20096;-70
2023/05/18 14:39:55;;;;;;;4.97;1.98;;;24.90;64.00;;;;;;10237168;27;20016;-68
2023/05/18 14:44:46;;;;;;;4.95;1.77;;;25.00;63.50;;;;;;10225219;28;20496;-68
2023/05/18 14:49:36;;;;;;;7.07;2.45;;;25.20;62.90;;;;;;10224738;28;20020;-66
2023/05/18 14:54:27;;;;;;;6.18;1.80;;;25.40;62.10;;;;;;10210122;27;20135;-65
2023/05/18 14:59:18;;;;;;;5.88;1.80;;;25.40;62.20;;;;;;10224393;28;20016;-61
2023/05/18 15:04:09;;;;;;;2.75;1.65;;;25.70;62.50;;;;;;10223778;28;20043;-67
2023/05/18 15:08:59;;;;;;;5.35;2.47;;;25.40;61.50;;;;;;10231224;27;20509;-67
2023/05/18 15:13:50;;;;;;;3.83;1.80;;;24.90;61.60;;;;;;10191725;28;20474;-67
2023/05/18 15:18:41;;;;;;;3.72;1.92;;;25.70;61.20;;;;;;10223470;28;20232;-63
2023/05/18 15:23:32;;;;;;;3.78;1.63;;;26.00;60.60;;;;;;10235661;27;20032;-66
2023/05/18 15:28:22;;;;;;;4.57;1.98;;;26.00;60.00;;;;;;10222895;28;20020;-64
2023/05/18 15:33:13;;;;;;;5.40;1.63;;;25.80;59.70;;;;;;10222830;28;20077;-67
2023/05/18 15:38:03;;;;;;;5.03;1.73;;;26.10;59.30;;;;;;10225531;27;20384;-66
2023/05/18 15:42:54;;;;;;;3.45;1.63;;;26.80;59.40;;;;;;10223254;28;20030;-62
2023/05/18 15:47:45;;;;;;;5.85;1.60;;;27.80;58.40;;;;;;10222187;28;20094;-64
2023/05/18 15:52:35;;;;;;;7.07;1.83;;;26.40;58.50;;;;;;10221876;28;20127;-61
2023/05/18 15:57:26;;;;;;;4.72;2.42;;;24.90;59.30;;;;;;10222086;28;20223;-64
2023/05/18 16:02:17;;;;;;;4.38;1.63;;;24.20;59.70;;;;;;10222460;28;20310;-65
2023/05/18 16:07:08;;;;;;;3.47;2.05;;;23.30;60.20;;;;;;10222531;28;20024;-68
2023/05/18 16:11:58;;;;;;;3.13;1.67;;;23.00;60.00;;;;;;10215529;28;20023;-63
2023/05/18 16:16:49;;;;;;;4.10;1.55;;;22.00;60.80;;;;;;10223970;27;20346;-66
2023/05/18 16:21:40;;;;;;;3.58;1.83;;;21.40;61.40;;;;;;10223250;28;20103;-68
2023/05/18 16:26:34;;;;;;;3.25;1.45;;;21.20;61.70;;;;;;10223153;28;20020;-64
2023/05/18 16:31:24;;;;;;;5.68;2.28;;;21.10;61.80;;;;;;10228131;27;20428;-71
2023/05/18 16:36:15;;;;;;;7.00;1.70;;;20.90;61.90;;;;;;10220088;28;20080;-65
2023/05/18 16:41:06;;;;;;;3.35;1.40;;;20.50;62.30;;;;;;10220661;28;20019;-66
2023/05/18 16:45:57;;;;;;;7.03;2.03;;;20.20;62.50;;;;;;10223424;27;20077;-65
2023/05/18 16:50:48;;;;;;;3.97;1.42;;;20.10;62.70;;;;;;10220228;28;20039;-63
2023/05/18 16:55:39;;;;;;;2.42;1.60;;;20.00;62.80;;;;;;10220025;28;20035;-68
2023/05/18 17:00:30;;;;;;;4.97;1.48;;;19.90;63.30;;;;;;10223623;27;20115;-65
2023/05/18 17:05:21;;;;;;;5.40;1.40;;;20.00;63.30;;;;;;10219529;28;20104;-71
2023/05/18 17:10:12;;;;;;;2.42;1.50;;;20.00;63.40;;;;;;10212858;28;20039;-62
2023/05/18 17:15:03;;;;;;;2.30;1.42;;;19.90;63.70;;;;;;10212413;28;20028;-62
2023/05/18 17:19:54;;;;;;;5.03;2.58;;;19.80;63.90;;;;;;10219623;28;20074;-67
2023/05/18 17:24:45;;;;;;;2.05;1.67;;;19.80;63.90;;;;;;10226200;28;20492;-70
2023/05/18 17:29:35;;;;;;;5.00;1.70;;;19.50;64.40;;;;;;10238268;27;20532;-62
2023/05/18 17:34:26;;;;;;;2.83;1.58;;;19.50;64.40;;;;;;10227205;28;20024;-64
2023/05/18 17:39:17;;;;;;;5.28;1.42;;;19.50;64.40;;;;;;10227075;28;20088;-62
2023/05/18 17:44:12;;;;;;;4.82;2.53;;;19.40;64.70;;;;;;10228376;27;20038;-66
2023/05/18 17:49:03;;;;;;;2.78;1.52;;;19.40;64.80;;;;;;10219542;28;20050;-62
2023/05/18 17:53:55;;;;;;;3.35;1.60;;;19.50;64.70;;;;;;10208165;28;20440;-65
2023/05/18 17:58:45;;;;;;;4.45;2.03;;;19.40;64.90;;;;;;10228394;27;20246;-62
2023/05/18 18:03:36;;;;;;;5.07;1.73;;;19.40;64.90;;;;;;10225792;28;20439;-63
2023/05/18 18:08:29;;;;;;;5.50;2.33;;;19.30;65.20;;;;;;10222142;28;20091;-62
2023/05/18 18:13:20;;;;;;;6.05;1.55;;;19.20;65.40;;;;;;10205043;28;20035;-64
2023/05/18 18:18:10;;;;;;;3.42;2.00;;;19.10;65.50;;;;;;10222587;28;20047;-65
2023/05/18 18:23:06;;;;;;;2.05;1.20;;;19.10;65.50;;;;;;10226674;27;20035;-63
2023/05/18 18:27:57;;;;;;;4.32;2.20;;;19.00;65.60;;;;;;10225789;28;20532;-62
2023/05/18 18:32:48;;;;;;;3.85;1.88;;;19.00;65.80;;;;;;10224682;28;20020;-65
2023/05/18 18:37:39;;;;;;;3.65;1.70;;;18.90;65.80;;;;;;10232015;27;20379;-63
2023/05/18 18:42:30;;;;;;;3.63;1.88;;;18.90;65.80;;;;;;10225031;28;20023;-70
2023/05/18 18:47:21;;;;;;;6.85;1.75;;;19.00;65.80;;;;;;10225567;28;20035;-70
2023/05/18 18:52:11;;;;;;;2.75;1.92;;;19.00;65.80;;;;;;10224729;28;20042;-70
2023/05/18 18:57:02;;;;;;;5.13;1.98;;;18.90;66.00;;;;;;10224516;28;20274;-66
2023/05/18 19:01:53;;;;;;;4.63;2.53;;;18.80;66.00;;;;;;10224136;28;20032;-68
2023/05/18 19:06:45;;;;;;;2.53;1.73;;;18.80;66.10;;;;;;10225042;28;20427;-70
2023/05/18 19:11:35;;;;;;;5.65;1.65;;;18.70;66.40;;;;;;10222259;28;20020;-62
2023/05/18 19:16:26;;;;;;;3.72;1.67;;;18.60;66.40;;;;;;10211411;28;20497;-64
2023/05/18 19:21:16;;;;;;;4.88;2.20;;;18.60;66.60;;;;;;10229469;27;20103;-63
2023/05/18 19:26:07;;;;;;;5.32;2.75;;;18.60;66.60;;;;;;10223177;28;20034;-62
2023/05/18 19:30:58;;;;;;;5.43;1.77;;;18.60;66.70;;;;;;10223161;28;20016;-66
2023/05/18 19:35:50;;;;;;;5.50;1.98;;;18.60;66.60;;;;;;10223671;28;20043;-64
2023/05/18 19:40:41;;;;;;;3.03;1.60;;;18.60;66.70;;;;;;10223513;28;20362;-64
2023/05/18 19:45:32;;;;;;;5.05;2.03;;;18.50;66.90;;;;;;10222601;28;20028;-62
2023/05/18 19:50:23;;;;;;;8.25;2.28;;;18.50;67.00;;;;;;10226025;27;20132;-63
2023/05/18 19:55:13;;;;;;;3.70;1.60;;;18.40;67.20;;;;;;10224054;28;20554;-63
2023/05/18 20:00:05;;;;;;;5.00;1.92;;;18.30;67.40;;;;;;10203116;28;20092;-64
2023/05/18 20:04:56;;;;;;;2.55;1.83;;;18.30;67.50;;;;;;10221823;28;20134;-62
2023/05/18 20:09:47;;;;;;;3.97;1.52;;;18.10;67.60;;;;;;10192315;28;20103;-63
2023/05/18 20:14:38;;;;;;;5.28;2.08;;;18.00;67.80;;;;;;10207659;28;20100;-62
2023/05/18 20:19:29;;;;;;;2.97;1.30;;;17.90;67.90;;;;;;10216089;28;20023;-63
2023/05/18 20:24:20;;;;;;;3.72;1.35;;;17.90;67.90;;;;;;10209619;28;20531;-63
2023/05/18 20:29:11;;;;;;;3.45;1.90;;;17.70;68.20;;;;;;10221614;28;20388;-63
2023/05/18 20:34:01;;;;;;;2.38;1.38;;;17.70;68.40;;;;;;10203309;28;20123;-63
2023/05/18 20:38:53;;;;;;;3.47;2.05;;;17.60;68.50;;;;;;10221840;28;20067;-65
2023/05/18 20:43:49;;;;;;;3.13;1.73;;;17.40;68.70;;;;;;10227132;27;20031;-64
2023/05/18 20:48:43;;;;;;;5.47;1.48;;;17.40;68.80;;;;;;10225025;27;20081;-65
2023/05/18 20:53:34;;;;;;;4.15;1.50;;;17.30;69.20;;;;;;10204813;28;20589;-63
2023/05/18 20:58:25;;;;;;;3.15;1.42;;;17.20;69.30;;;;;;10225039;27;20314;-67
2023/05/18 21:03:17;;;;;;;5.85;1.80;;;17.20;69.50;;;;;;10219635;28;20043;-71
2023/05/18 21:08:07;;;;;;;2.13;1.70;;;17.10;69.70;;;;;;10215039;28;20040;-66
2023/05/18 21:12:58;;;;;;;4.05;1.75;;;17.00;69.80;;;;;;10205179;28;20051;-67
2023/05/18 21:17:48;;;;;;;3.95;1.52;;;16.90;69.90;;;;;;10218823;28;20118;-69
2023/05/18 21:22:39;;;;;;;5.03;1.40;;;16.80;70.10;;;;;;10220008;28;20047;-67
2023/05/18 21:27:30;;;;;;;2.70;1.33;;;16.80;70.50;;;;;;10224662;28;20088;-62
2023/05/18 21:32:21;;;;;;;4.13;1.75;;;16.70;70.70;;;;;;10218798;28;20366;-65
2023/05/18 21:37:12;;;;;;;2.28;1.45;;;16.50;71.00;;;;;;10219064;28;20036;-62
2023/05/18 21:42:03;;;;;;;2.17;1.33;;;16.50;71.10;;;;;;10228591;28;20107;-62
2023/05/18 21:46:53;;;;;;;4.18;1.27;;;16.40;71.40;;;;;;10218869;28;20157;-66
2023/05/18 21:51:44;;;;;;;4.57;1.75;;;16.30;71.80;;;;;;10219056;28;20046;-63
2023/05/18 21:56:35;;;;;;;6.30;1.45;;;16.30;71.80;;;;;;10219100;28;20040;-62
2023/05/18 22:01:26;;;;;;;3.65;1.30;;;16.30;72.00;;;;;;10214923;28;20096;-65
2023/05/18 22:06:16;;;;;;;2.08;1.77;;;16.20;72.20;;;;;;10218642;28;20096;-62
2023/05/18 22:11:07;;;;;;;4.20;1.52;;;16.20;72.90;;;;;;10225257;28;20019;-63
2023/05/18 22:15:58;;;;;;;6.43;1.50;;;16.20;72.30;;;;;;10212820;28;20477;-67
2023/05/18 22:20:48;;;;;;;4.60;2.05;;;16.10;72.50;;;;;;10225501;28;20020;-67
2023/05/18 22:25:39;;;;;;;3.72;1.90;;;15.90;73.00;;;;;;10235463;27;20035;-65
2023/05/18 22:30:30;;;;;;;4.65;1.70;;;15.90;73.10;;;;;;10225809;28;20073;-63
2023/05/18 22:35:22;;;;;;;2.95;2.33;;;15.70;73.40;;;;;;10225027;28;20039;-63
2023/05/18 22:40:12;;;;;;;5.65;1.90;;;15.70;73.60;;;;;;10224487;28;20034;-63
2023/05/18 22:45:03;;;;;;;5.82;1.90;;;15.60;73.70;;;;;;10224788;28;20103;-63
2023/05/18 22:49:55;;;;;;;4.45;1.83;;;15.60;74.00;;;;;;10226571;27;20035;-68
2023/05/18 22:54:45;;;;;;;4.43;1.40;;;15.50;74.10;;;;;;10229537;27;20042;-63
2023/05/18 22:59:36;;;;;;;2.70;1.70;;;15.50;74.10;;;;;;10225644;27;20031;-73
2023/05/18 23:04:27;;;;;;;3.92;1.52;;;15.40;74.30;;;;;;10229378;27;20047;-65
2023/05/18 23:09:18;;;;;;;5.55;1.38;;;15.20;74.60;;;;;;10216734;27;20046;-72
2023/05/18 23:14:09;;;;;;;5.85;1.92;;;15.10;74.90;;;;;;10211844;27;20024;-66
2023/05/18 23:19:00;;;;;;;2.65;1.45;;;15.10;74.90;;;;;;10223593;28;20039;-65
2023/05/18 23:23:51;;;;;;;6.22;2.13;;;15.00;75.30;;;;;;10222838;28;20443;-62
2023/05/18 23:28:41;;;;;;;3.70;1.65;;;14.80;75.70;;;;;;10222850;28;20032;-62
2023/05/18 23:33:32;;;;;;;2.38;1.30;;;14.60;76.10;;;;;;10227390;27;20023;-69
2023/05/18 23:38:27;;;;;;;6.70;1.60;;;14.50;76.60;;;;;;10222841;28;20042;-62
2023/05/18 23:43:18;;;;;;;3.42;1.25;;;14.50;76.60;;;;;;10222626;28;20028;-62
2023/05/18 23:48:09;;;;;;;2.70;1.63;;;14.40;76.90;;;;;;10223448;27;20531;-63
2023/05/18 23:53:03;;;;;;;4.65;1.75;;;14.30;77.30;;;;;;10230501;27;20032;-62
2023/05/18 23:57:54;;;;;;;3.95;1.67;;;14.30;77.30;;;;;;10226035;27;20046;-66
